Página principal
METAR-TAF:

METAR-TAF

Aeroportos :

Astracã, Rússia

latitude: 46-17N, longitude: 048-00-23E, altura: 0 m

Observação actual do tempo

O boletim foi feito há 23 minutos, às 18:30 UTC
Vento 6 kt de este
Temperatura 2°C
Humidade 55%
Pressão 1027 hPa
Visibilidade 10 km ou mais
sem nuvens abaixo de 1500 metros e sem cumulonimbus

METAR: URWA 231830Z 09003MPS CAVOK 02/M06 Q1027 R09/010060 NOSIG RMK QFE772/1030

Hora: 21:53 (18:53 UTC)

Previsão

O boletim foi feito há 1 hora e 53 minutos, às 17:00 UTC
Previsão válida de 23 às 18 UTC a 24 às 03 UTC
Vento 6 kt de este com rajadas de 16 kt
Visibilidade 10 km ou mais
Nuvens dispersasa uma altura de 2000 ft
Temporariamente
de 23 às 18 UTC a 23 às 24 UTC
Nuvens fragmentadasa uma altura de 1100 ft

TAF: URWA 231700Z 2318/2403 10003G08MPS 9999 SCT020 TEMPO 2318/2324 BKN011

Observações e previsões do tempo de mais de 4000 aeroportos (mensagens METAR e TAF).

As estações disponíveis são os pontos amarelos e vermelhos sobre o mapa.

Mova o rato sobre o mapa para ver o nome da estação.

Depois clique no ponto para visualizar as observações e previsões meteorológicas.

Para alterar o mapa : clique nos botões verdes com uma cruz preta para aumentar o zoom; no botão verde com uma pitada de zoom; ou nas setas verdes para mapas adjacentes.


METAR-TAF: